Maersk Privilege — 9VVD6 — position and weather

sailwx.info

Track history (hours):
 
Tides and Currents Weather Stations Pressure Air Temp Water Temp Dewpoint Dewpoint Depression Visibility Wind Speed Wind Dir Waves Ship Positions

Maersk Privilege

Last reported at 2017-Sep-21 00:19 UTC. Time now 2017-Sep-22 02:40 UTC.
Position N 36°20' E 015°04'.

Length 240 m; draft 8.4 m.

Type: Tanker. MMSI: 565645000.

Date/timePositionNaut miles runAvg speedWind from/ knotsBaromVisibWave heightAir tempDewpointWater temp
2017-Sep-21 00:19N 36°20' E 015°04'410.5
2017-Sep-20 23:56N 36°17' E 014°60'610.0
2017-Sep-20 23:18N 36°12' E 014°56'410.5
2017-Sep-20 22:58N 36°10' E 014°53'11 5.3
2017-Sep-20 20:50N 36°08' E 014°39'411.7
2017-Sep-20 20:30N 36°09' E 014°34'611.6
2017-Sep-20 20:00N 36°12' E 014°28'3 5.3
2017-Sep-20 19:31N 36°14' E 014°26'4 8.7
2017-Sep-20 19:00N 36°12' E 014°31'4 8.4
2017-Sep-20 18:30N 36°11' E 014°36'4 8.3
2017-Sep-20 18:00N 36°10' E 014°41'4 8.3
2017-Sep-20 17:29N 36°09' E 014°46'4 8.6
2017-Sep-20 17:00N 36°10' E 014°51'4 8.6
2017-Sep-20 16:30N 36°08' E 014°56'15 5.9
2017-Sep-20 13:58N 36°07' E 014°37'511.8
2017-Sep-20 13:31N 36°09' E 014°31'611.8
2017-Sep-20 13:00N 36°12' E 014°24'611.1
2017-Sep-20 12:30N 36°14' E 014°18'3 6.5
2017-Sep-20 12:00N 36°11' E 014°20'4 8.5
2017-Sep-20 11:30N 36°09' E 014°25'4 8.5
2017-Sep-20 11:00N 36°07' E 014°29'4 8.5
2017-Sep-20 10:31N 36°04' E 014°34'4 8.6
2017-Sep-20 10:00N 36°03' E 014°39'4 8.9
2017-Sep-20 09:31N 36°02' E 014°44'5 9.1
2017-Sep-20 09:01N 36°02' E 014°50'5 9.1
2017-Sep-20 08:30N 36°01' E 014°55'13 9.3
2017-Sep-20 07:09N 36°09' E 014°43'211.5
2017-Sep-20 07:00N 36°10' E 014°41'610.9
2017-Sep-20 06:30N 36°12' E 014°35'4 7.5
2017-Sep-20 06:00N 36°09' E 014°38'4 8.8
2017-Sep-20 05:30N 36°07' E 014°42'6 8.6
2017-Sep-20 04:47N 36°03' E 014°49'2 8.3
2017-Sep-20 04:29N 36°02' E 014°51'4 7.8
2017-Sep-20 03:57N 35°58' E 014°54'3 7.2
2017-Sep-20 03:30N 35°56' E 014°57'1410.9
2017-Sep-20 02:12N 36°06' E 014°45'311.7
2017-Sep-20 01:55N 36°08' E 014°42'410.4
2017-Sep-20 01:30N 36°10' E 014°37'4 7.4
2017-Sep-20 01:00N 36°08' E 014°41'4 7.6
2017-Sep-20 00:25N 36°06' E 014°45'4 7.3
2017-Sep-19 23:54N 36°03' E 014°49'3 7.5
2017-Sep-19 23:28N 36°01' E 014°52'3 7.4
2017-Sep-19 23:00N 35°59' E 014°56'2 4.3
2017-Sep-19 22:30N 35°59' E 014°53'510.8
2017-Sep-19 22:00N 36°01' E 014°47'811.6
2017-Sep-19 21:20N 36°06' E 014°41'1 3.7
2017-Sep-19 21:00N 36°08' E 014°41'7 7.8
2017-Sep-19 20:02N 36°04' E 014°49'1 7.9
2017-Sep-19 19:57N 36°03' E 014°49'4 8.0
2017-Sep-19 19:30N 36°02' E 014°53'4 7.5
2017-Sep-19 19:00N 35°59' E 014°57'2 4.1
2017-Sep-19 18:30N 35°59' E 014°55'3 6.2
2017-Sep-19 18:00N 35°59' E 014°51'1 1.9
2017-Sep-19 17:30N 35°58' E 014°52'1 2.1
2017-Sep-19 17:00N 35°57' E 014°53'1 2.4
2017-Sep-19 16:30N 35°57' E 014°54'1 2.8
2017-Sep-19 16:00N 35°56' E 014°55'2 3.6
2017-Sep-19 15:30N 35°54' E 014°56'2 3.1
2017-Sep-19 15:00N 35°53' E 014°57'2 3.1
2017-Sep-19 14:30N 35°52' E 014°56'3 6.0
2017-Sep-19 14:00N 35°52' E 014°52'3 5.5
2017-Sep-19 13:30N 35°52' E 014°48'2 4.7
2017-Sep-19 12:59N 35°51' E 014°45'1 1.8
2017-Sep-19 12:29N 35°52' E 014°45'0 0.2
2017-Sep-19 11:59N 35°52' E 014°45'0 0.1
2017-Sep-19 11:29N 35°52' E 014°45'0 0.0
2017-Sep-19 10:59N 35°52' E 014°45'0 0.0
2017-Sep-19 10:29N 35°52' E 014°45'0 0.0
2017-Sep-19 09:32N 35°52' E 014°45'0 0.0
2017-Sep-19 09:29N 35°52' E 014°45'0 0.1
2017-Sep-19 08:59N 35°52' E 014°45'0 0.0
2017-Sep-19 08:29N 35°52' E 014°45'0 0.0
2017-Sep-19 07:59N 35°52' E 014°45'0 0.0
2017-Sep-19 07:29N 35°52' E 014°45'0 0.0
2017-Sep-19 06:59N 35°52' E 014°45'0 0.0
2017-Sep-19 06:29N 35°52' E 014°45'0 0.1
2017-Sep-19 05:59N 35°52' E 014°45'0 0.0
2017-Sep-19 05:29N 35°52' E 014°45'0 0.1
2017-Sep-19 04:56N 35°52' E 014°45'0 0.0
2017-Sep-19 04:29N 35°52' E 014°45'0 0.0
2017-Sep-19 03:59N 35°52' E 014°45'0 0.1
2017-Sep-19 03:29N 35°52' E 014°45'0 0.1
2017-Sep-19 02:59N 35°52' E 014°45'0 0.1
2017-Sep-19 02:23N 35°52' E 014°45'0 0.4
2017-Sep-19 02:00N 35°52' E 014°45'2 3.3
2017-Sep-19 01:30N 35°54' E 014°44'510.5
2017-Sep-19 01:00N 35°56' E 014°49'4 7.5
2017-Sep-19 00:30N 35°60' E 014°51'1 1.6
2017-Sep-19 00:00N 35°59' E 014°51'0 0.0
2017-Sep-18 23:30N 35°59' E 014°51'0 0.0
2017-Sep-18 23:00N 35°59' E 014°51'0 0.0
2017-Sep-18 22:26N 35°59' E 014°51'0 0.0
2017-Sep-18 22:00N 35°59' E 014°51'0 0.0
2017-Sep-18 21:29N 35°59' E 014°51'0 0.0
2017-Sep-18 20:58N 35°59' E 014°51'0 0.0
2017-Sep-18 20:27N 35°59' E 014°51'0 0.0
2017-Sep-18 20:00N 35°59' E 014°51'0 0.1
2017-Sep-18 19:29N 35°59' E 014°51'0 0.1
2017-Sep-18 19:00N 35°59' E 014°51'0 0.1
2017-Sep-18 18:30N 35°59' E 014°51'0 0.0
2017-Sep-18 18:00N 35°59' E 014°51'0 0.0
2017-Sep-18 17:30N 35°59' E 014°51'0 0.1
2017-Sep-18 16:59N 35°59' E 014°51'0 0.0
2017-Sep-18 16:30N 35°59' E 014°51'0 0.0
2017-Sep-18 16:00N 35°59' E 014°51'0 0.1
2017-Sep-18 15:29N 35°59' E 014°51'0 0.1
2017-Sep-18 15:00N 35°59' E 014°51'0 0.1
2017-Sep-18 14:30N 35°59' E 014°51'0 0.1
2017-Sep-18 14:00N 35°59' E 014°51'0 0.0
2017-Sep-18 12:42N 35°59' E 014°51'0 0.0
2017-Sep-18 11:02N 35°59' E 014°51'0 0.0
2017-Sep-18 08:37N 35°59' E 014°51'0 0.1
2017-Sep-18 08:30N 35°59' E 014°51'0 0.0
2017-Sep-18 08:00N 35°59' E 014°51'0 0.0
2017-Sep-18 07:30N 35°59' E 014°51'0 0.0
2017-Sep-18 07:00N 35°59' E 014°51'0 0.0
2017-Sep-18 06:29N 35°59' E 014°51'0 0.0
2017-Sep-18 06:00N 35°59' E 014°51'0 0.0
2017-Sep-18 05:30N 35°59' E 014°51'0 0.0
2017-Sep-18 04:56N 35°59' E 014°51'0 0.0
2017-Sep-18 04:30N 35°59' E 014°51'0 0.0
2017-Sep-18 04:00N 35°59' E 014°51'0 0.0
2017-Sep-18 03:30N 35°59' E 014°51'0 0.0
2017-Sep-18 02:42N 35°59' E 014°51'0 0.1
2017-Sep-18 02:21N 35°59' E 014°51'0 0.2
2017-Sep-18 02:00N 35°59' E 014°51'0 0.1
2017-Sep-18 01:30N 35°59' E 014°51'0 0.0
2017-Sep-18 01:00N 35°59' E 014°51'0 0.0
2017-Sep-18 00:30N 35°59' E 014°51'0 0.1
2017-Sep-17 23:59N 35°59' E 014°51'0 0.1
2017-Sep-17 23:30N 35°59' E 014°51'0 0.0
2017-Sep-17 23:00N 35°59' E 014°51'0 0.0
2017-Sep-17 22:30N 35°59' E 014°51'0 0.0
2017-Sep-17 21:58N 35°59' E 014°51'0 0.0
2017-Sep-17 21:30N 35°59' E 014°51'0 0.0
2017-Sep-17 21:00N 35°59' E 014°51'0 0.2
2017-Sep-17 20:29N 35°59' E 014°51'0 0.4
2017-Sep-17 19:55N 35°60' E 014°51'1 3.3
2017-Sep-17 19:30N 36°01' E 014°51'4 5.1
2017-Sep-17 18:42N 36°05' E 014°49'1 5.1
2017-Sep-17 18:28N 36°06' E 014°49'2 5.2
2017-Sep-17 18:00N 36°08' E 014°48'3 5.2
2017-Sep-17 17:30N 36°11' E 014°46'2 4.9
2017-Sep-17 17:00N 36°13' E 014°45'2 3.6
2017-Sep-17 16:30N 36°13' E 014°43'2 4.9
2017-Sep-17 16:00N 36°11' E 014°44'3 5.1
2017-Sep-17 15:30N 36°08' E 014°45'3 5.4
2017-Sep-17 14:57N 36°06' E 014°47'2 5.6
2017-Sep-17 14:30N 36°04' E 014°48'3 5.8
2017-Sep-17 14:00N 36°01' E 014°50'1 1.5
2017-Sep-17 13:30N 36°01' E 014°50'2 4.2
2017-Sep-17 13:00N 36°02' E 014°48'4 7.3
2017-Sep-17 12:30N 36°04' E 014°44'3 5.6
2017-Sep-17 11:59N 36°04' E 014°41'510.9
2017-Sep-17 11:30N 36°07' E 014°35'612.0
2017-Sep-17 11:00N 36°11' E 014°29'612.5
2017-Sep-17 10:30N 36°13' E 014°22'612.1
2017-Sep-17 10:00N 36°15' E 014°15'612.0
2017-Sep-17 09:30N 36°17' E 014°08'611.8
2017-Sep-17 09:00N 36°20' E 014°01'611.8
2017-Sep-17 08:30N 36°22' E 013°55'611.8
2017-Sep-17 08:00N 36°24' E 013°48'611.7
2017-Sep-17 07:30N 36°26' E 013°41'611.5
2017-Sep-17 07:00N 36°29' E 013°34'611.5
2017-Sep-17 06:30N 36°31' E 013°28'611.3
2017-Sep-17 06:00N 36°33' E 013°22'611.1
2017-Sep-17 05:30N 36°35' E 013°15'611.3
2017-Sep-17 05:00N 36°37' E 013°09'611.6
2017-Sep-17 04:30N 36°39' E 013°02'611.9
2017-Sep-17 04:00N 36°41' E 012°55'612.4
2017-Sep-17 03:30N 36°43' E 012°47'1112.5
2017-Sep-17 02:38N 36°48' E 012°35'212.7
2017-Sep-17 02:28N 36°48' E 012°33'612.9
2017-Sep-17 02:00N 36°51' E 012°26'612.8
2017-Sep-17 01:30N 36°53' E 012°18'713.1
2017-Sep-17 01:00N 36°56' E 012°11'713.1
2017-Sep-17 00:30N 36°59' E 012°04'612.8
2017-Sep-17 00:00N 37°02' E 011°56'612.5
2017-Sep-16 23:30N 37°04' E 011°49'612.5
2017-Sep-16 23:00N 37°07' E 011°42'612.6
2017-Sep-16 22:30N 37°10' E 011°35'612.8
2017-Sep-16 22:00N 37°13' E 011°28'713.0
2017-Sep-16 21:30N 37°17' E 011°21'612.9
2017-Sep-16 21:00N 37°20' E 011°14'712.8
2017-Sep-16 20:29N 37°23' E 011°07'612.9
2017-Sep-16 20:00N 37°27' E 011°01'613.1
2017-Sep-16 19:30N 37°31' E 010°54'713.0
2017-Sep-16 19:00N 37°34' E 010°47'613.1
2017-Sep-16 18:30N 37°37' E 010°40'713.0
2017-Sep-16 18:00N 37°41' E 010°34'712.9
2017-Sep-16 17:26N 37°45' E 010°26'612.7
2017-Sep-16 17:00N 37°48' E 010°20'612.8
2017-Sep-16 16:30N 37°52' E 010°13'612.6
2017-Sep-16 16:00N 37°55' E 010°06'612.5
2017-Sep-16 15:30N 37°59' E 009°60'712.5
2017-Sep-16 14:54N 38°03' E 009°52'512.8
2017-Sep-16 14:30N 38°06' E 009°46'612.2
2017-Sep-16 14:00N 38°07' E 009°39'5812.6
2017-Sep-16 09:23N 38°04' E 008°26'612.8
2017-Sep-16 08:56N 38°04' E 008°18'34312.5
2017-Sep-15 05:27N 37°24' E 001°08'2912.5
2017-Sep-15 03:10N 37°11' E 000°36'212.3
2017-Sep-15 02:59N 37°10' E 000°33'612.5
2017-Sep-15 02:29N 37°07' E 000°26'612.8
2017-Sep-15 02:00N 37°04' E 000°19'812.8
2017-Sep-15 01:22N 37°01' E 000°10'512.9
2017-Sep-15 01:00N 36°59' E 000°05'712.9
2017-Sep-15 00:29N 36°56' W 000°03'2312.7
2017-Sep-14 22:43N 36°46' W 000°28'312.8
2017-Sep-14 22:30N 36°45' W 000°31'812.7
2017-Sep-14 21:53N 36°41' W 000°40'512.7
2017-Sep-14 21:30N 36°39' W 000°45'712.9
2017-Sep-14 21:00N 36°36' W 000°53'613.0
2017-Sep-14 20:30N 36°33' W 000°59'613.0
2017-Sep-14 20:00N 36°30' W 001°06'713.3
2017-Sep-14 19:30N 36°27' W 001°14'713.6
2017-Sep-14 18:59N 36°24' W 001°22'713.6
2017-Sep-14 18:30N 36°21' W 001°29'713.5
2017-Sep-14 18:00N 36°18' W 001°37'2413.2
2017-Sep-14 16:11N 36°13' W 002°06'513.2
2017-Sep-14 15:50N 36°13' W 002°12'14813.4
2017-Sep-14 04:46N 36°00' W 005°14'313.4
2017-Sep-14 04:30N 35°60' W 005°18'713.3
2017-Sep-14 04:00N 35°58' W 005°26'713.3
2017-Sep-14 03:30N 35°56' W 005°34'712.7
2017-Sep-14 02:59N 35°55' W 005°42'612.3
2017-Sep-14 02:30N 35°55' W 005°49'6712.3
2017-Sep-13 21:04N 36°03' W 007°12'1512.2
2017-Sep-13 19:51N 36°06' W 007°29'412.1
2017-Sep-13 19:30N 36°07' W 007°35'712.4
2017-Sep-13 18:58N 36°09' W 007°43'612.2
2017-Sep-13 18:30N 36°10' W 007°49'712.1
2017-Sep-13 17:55N 36°12' W 007°58'512.3
2017-Sep-13 17:30N 36°13' W 008°04'712.7
2017-Sep-13 16:59N 36°15' W 008°12'812.4
2017-Sep-13 16:20N 36°17' W 008°22'612.4
2017-Sep-13 15:49N 36°19' W 008°29'412.6
2017-Sep-13 15:28N 36°20' W 008°35'612.5
2017-Sep-13 14:58N 36°21' W 008°42'612.6
2017-Sep-13 14:30N 36°23' W 008°49'712.8
2017-Sep-13 13:59N 36°25' W 008°57'613.0
2017-Sep-13 13:30N 36°26' W 009°05'713.0
2017-Sep-13 12:56N 36°28' W 009°14'512.9
2017-Sep-13 12:30N 36°30' W 009°20'612.6
2017-Sep-13 12:00N 36°34' W 009°26'612.8
2017-Sep-13 11:30N 36°39' W 009°31'612.6
2017-Sep-13 11:00N 36°44' W 009°36'612.3
2017-Sep-13 10:31N 36°49' W 009°39'1013.0
2017-Sep-13 09:46N 36°59' W 009°42'313.0
2017-Sep-13 09:30N 37°02' W 009°43'612.8
2017-Sep-13 09:00N 37°08' W 009°45'613.0
2017-Sep-13 08:30N 37°14' W 009°47'713.1
2017-Sep-13 08:00N 37°21' W 009°49'612.8
2017-Sep-13 07:30N 37°27' W 009°51'712.7
2017-Sep-13 07:00N 37°33' W 009°52'612.5
2017-Sep-13 06:30N 37°39' W 009°54'912.4
2017-Sep-13 05:45N 37°48' W 009°56'512.5
2017-Sep-13 05:22N 37°53' W 009°58'512.5
2017-Sep-13 05:00N 37°58' W 009°59'612.6
2017-Sep-13 04:30N 38°04' W 010°01'612.7
2017-Sep-13 04:00N 38°10' W 010°03'612.4
2017-Sep-13 03:30N 38°16' W 010°05'612.4
2017-Sep-13 03:00N 38°22' W 010°07'612.9
2017-Sep-13 02:30N 38°28' W 010°09'713.1
2017-Sep-13 02:00N 38°35' W 010°10'713.3
2017-Sep-13 01:30N 38°41' W 010°12'713.2
2017-Sep-13 01:00N 38°48' W 010°12'613.0
2017-Sep-13 00:30N 38°54' W 010°12'713.3
2017-Sep-13 00:00N 39°01' W 010°12'613.1
2017-Sep-12 23:30N 39°07' W 010°12'713.1
2017-Sep-12 23:00N 39°14' W 010°12'612.9
2017-Sep-12 22:30N 39°20' W 010°12'712.9
2017-Sep-12 22:00N 39°27' W 010°12'612.8
2017-Sep-12 21:30N 39°33' W 010°12'1413.1
2017-Sep-12 20:28N 39°47' W 010°12'613.1
2017-Sep-12 19:59N 39°53' W 010°12'2612.8
2017-Sep-12 17:56N 40°19' W 010°12'  
Track history (hours):
 
Tides and Currents Weather Stations Pressure Air Temp Water Temp Dewpoint Dewpoint Depression Visibility Wind Speed Wind Dir Waves Ship Positions

Maersk Privilege

Last reported at 2017-Sep-21 00:19 UTC. Time now 2017-Sep-22 02:40 UTC.
Position N 36°20' E 015°04'.

Length 240 m; draft 8.4 m.

Type: Tanker. MMSI: 565645000.

Date/timePositionNaut miles runAvg speedWind from/ knotsBaromVisibWave heightAir tempDewpointWater temp
2017-Sep-21 00:19N 36°20' E 015°04'410.5
2017-Sep-20 23:56N 36°17' E 014°60'610.0
2017-Sep-20 23:18N 36°12' E 014°56'410.5
2017-Sep-20 22:58N 36°10' E 014°53'11 5.3
2017-Sep-20 20:50N 36°08' E 014°39'411.7
2017-Sep-20 20:30N 36°09' E 014°34'611.6
2017-Sep-20 20:00N 36°12' E 014°28'3 5.3
2017-Sep-20 19:31N 36°14' E 014°26'4 8.7
2017-Sep-20 19:00N 36°12' E 014°31'4 8.4
2017-Sep-20 18:30N 36°11' E 014°36'4 8.3
2017-Sep-20 18:00N 36°10' E 014°41'4 8.3
2017-Sep-20 17:29N 36°09' E 014°46'4 8.6
2017-Sep-20 17:00N 36°10' E 014°51'4 8.6
2017-Sep-20 16:30N 36°08' E 014°56'15 5.9
2017-Sep-20 13:58N 36°07' E 014°37'511.8
2017-Sep-20 13:31N 36°09' E 014°31'611.8
2017-Sep-20 13:00N 36°12' E 014°24'611.1
2017-Sep-20 12:30N 36°14' E 014°18'3 6.5
2017-Sep-20 12:00N 36°11' E 014°20'4 8.5
2017-Sep-20 11:30N 36°09' E 014°25'4 8.5
2017-Sep-20 11:00N 36°07' E 014°29'4 8.5
2017-Sep-20 10:31N 36°04' E 014°34'4 8.6
2017-Sep-20 10:00N 36°03' E 014°39'4 8.9
2017-Sep-20 09:31N 36°02' E 014°44'5 9.1
2017-Sep-20 09:01N 36°02' E 014°50'5 9.1
2017-Sep-20 08:30N 36°01' E 014°55'13 9.3
2017-Sep-20 07:09N 36°09' E 014°43'211.5
2017-Sep-20 07:00N 36°10' E 014°41'610.9
2017-Sep-20 06:30N 36°12' E 014°35'4 7.5
2017-Sep-20 06:00N 36°09' E 014°38'4 8.8
2017-Sep-20 05:30N 36°07' E 014°42'6 8.6
2017-Sep-20 04:47N 36°03' E 014°49'2 8.3
2017-Sep-20 04:29N 36°02' E 014°51'4 7.8
2017-Sep-20 03:57N 35°58' E 014°54'3 7.2
2017-Sep-20 03:30N 35°56' E 014°57'1410.9
2017-Sep-20 02:12N 36°06' E 014°45'311.7
2017-Sep-20 01:55N 36°08' E 014°42'410.4
2017-Sep-20 01:30N 36°10' E 014°37'4 7.4
2017-Sep-20 01:00N 36°08' E 014°41'4 7.6
2017-Sep-20 00:25N 36°06' E 014°45'4 7.3
2017-Sep-19 23:54N 36°03' E 014°49'3 7.5
2017-Sep-19 23:28N 36°01' E 014°52'3 7.4
2017-Sep-19 23:00N 35°59' E 014°56'2 4.3
2017-Sep-19 22:30N 35°59' E 014°53'510.8
2017-Sep-19 22:00N 36°01' E 014°47'811.6
2017-Sep-19 21:20N 36°06' E 014°41'1 3.7
2017-Sep-19 21:00N 36°08' E 014°41'7 7.8
2017-Sep-19 20:02N 36°04' E 014°49'1 7.9
2017-Sep-19 19:57N 36°03' E 014°49'4 8.0
2017-Sep-19 19:30N 36°02' E 014°53'4 7.5
2017-Sep-19 19:00N 35°59' E 014°57'2 4.1
2017-Sep-19 18:30N 35°59' E 014°55'3 6.2
2017-Sep-19 18:00N 35°59' E 014°51'1 1.9
2017-Sep-19 17:30N 35°58' E 014°52'1 2.1
2017-Sep-19 17:00N 35°57' E 014°53'1 2.4
2017-Sep-19 16:30N 35°57' E 014°54'1 2.8
2017-Sep-19 16:00N 35°56' E 014°55'2 3.6
2017-Sep-19 15:30N 35°54' E 014°56'2 3.1
2017-Sep-19 15:00N 35°53' E 014°57'2 3.1
2017-Sep-19 14:30N 35°52' E 014°56'3 6.0
2017-Sep-19 14:00N 35°52' E 014°52'3 5.5
2017-Sep-19 13:30N 35°52' E 014°48'2 4.7
2017-Sep-19 12:59N 35°51' E 014°45'1 1.8
2017-Sep-19 12:29N 35°52' E 014°45'0 0.2
2017-Sep-19 11:59N 35°52' E 014°45'0 0.1
2017-Sep-19 11:29N 35°52' E 014°45'0 0.0
2017-Sep-19 10:59N 35°52' E 014°45'0 0.0
2017-Sep-19 10:29N 35°52' E 014°45'0 0.0
2017-Sep-19 09:32N 35°52' E 014°45'0 0.0
2017-Sep-19 09:29N 35°52' E 014°45'0 0.1
2017-Sep-19 08:59N 35°52' E 014°45'0 0.0
2017-Sep-19 08:29N 35°52' E 014°45'0 0.0
2017-Sep-19 07:59N 35°52' E 014°45'0 0.0
2017-Sep-19 07:29N 35°52' E 014°45'0 0.0
2017-Sep-19 06:59N 35°52' E 014°45'0 0.0
2017-Sep-19 06:29N 35°52' E 014°45'0 0.1
2017-Sep-19 05:59N 35°52' E 014°45'0 0.0
2017-Sep-19 05:29N 35°52' E 014°45'0 0.1
2017-Sep-19 04:56N 35°52' E 014°45'0 0.0
2017-Sep-19 04:29N 35°52' E 014°45'0 0.0
2017-Sep-19 03:59N 35°52' E 014°45'0 0.1
2017-Sep-19 03:29N 35°52' E 014°45'0 0.1
2017-Sep-19 02:59N 35°52' E 014°45'0 0.1
2017-Sep-19 02:23N 35°52' E 014°45'0 0.4
2017-Sep-19 02:00N 35°52' E 014°45'2 3.3
2017-Sep-19 01:30N 35°54' E 014°44'510.5
2017-Sep-19 01:00N 35°56' E 014°49'4 7.5
2017-Sep-19 00:30N 35°60' E 014°51'1 1.6
2017-Sep-19 00:00N 35°59' E 014°51'0 0.0
2017-Sep-18 23:30N 35°59' E 014°51'0 0.0
2017-Sep-18 23:00N 35°59' E 014°51'0 0.0
2017-Sep-18 22:26N 35°59' E 014°51'0 0.0
2017-Sep-18 22:00N 35°59' E 014°51'0 0.0
2017-Sep-18 21:29N 35°59' E 014°51'0 0.0
2017-Sep-18 20:58N 35°59' E 014°51'0 0.0
2017-Sep-18 20:27N 35°59' E 014°51'0 0.0
2017-Sep-18 20:00N 35°59' E 014°51'0 0.1
2017-Sep-18 19:29N 35°59' E 014°51'0 0.1
2017-Sep-18 19:00N 35°59' E 014°51'0 0.1
2017-Sep-18 18:30N 35°59' E 014°51'0 0.0
2017-Sep-18 18:00N 35°59' E 014°51'0 0.0
2017-Sep-18 17:30N 35°59' E 014°51'0 0.1
2017-Sep-18 16:59N 35°59' E 014°51'0 0.0
2017-Sep-18 16:30N 35°59' E 014°51'0 0.0
2017-Sep-18 16:00N 35°59' E 014°51'0 0.1
2017-Sep-18 15:29N 35°59' E 014°51'0 0.1
2017-Sep-18 15:00N 35°59' E 014°51'0 0.1
2017-Sep-18 14:30N 35°59' E 014°51'0 0.1
2017-Sep-18 14:00N 35°59' E 014°51'0 0.0
2017-Sep-18 12:42N 35°59' E 014°51'0 0.0
2017-Sep-18 11:02N 35°59' E 014°51'0 0.0
2017-Sep-18 08:37N 35°59' E 014°51'0 0.1
2017-Sep-18 08:30N 35°59' E 014°51'0 0.0
2017-Sep-18 08:00N 35°59' E 014°51'0 0.0
2017-Sep-18 07:30N 35°59' E 014°51'0 0.0
2017-Sep-18 07:00N 35°59' E 014°51'0 0.0
2017-Sep-18 06:29N 35°59' E 014°51'0 0.0
2017-Sep-18 06:00N 35°59' E 014°51'0 0.0
2017-Sep-18 05:30N 35°59' E 014°51'0 0.0
2017-Sep-18 04:56N 35°59' E 014°51'0 0.0
2017-Sep-18 04:30N 35°59' E 014°51'0 0.0
2017-Sep-18 04:00N 35°59' E 014°51'0 0.0
2017-Sep-18 03:30N 35°59' E 014°51'0 0.0
2017-Sep-18 02:42N 35°59' E 014°51'0 0.1
2017-Sep-18 02:21N 35°59' E 014°51'0 0.2
2017-Sep-18 02:00N 35°59' E 014°51'0 0.1
2017-Sep-18 01:30N 35°59' E 014°51'0 0.0
2017-Sep-18 01:00N 35°59' E 014°51'0 0.0
2017-Sep-18 00:30N 35°59' E 014°51'0 0.1
2017-Sep-17 23:59N 35°59' E 014°51'0 0.1
2017-Sep-17 23:30N 35°59' E 014°51'0 0.0
2017-Sep-17 23:00N 35°59' E 014°51'0 0.0
2017-Sep-17 22:30N 35°59' E 014°51'0 0.0
2017-Sep-17 21:58N 35°59' E 014°51'0 0.0
2017-Sep-17 21:30N 35°59' E 014°51'0 0.0
2017-Sep-17 21:00N 35°59' E 014°51'0 0.2
2017-Sep-17 20:29N 35°59' E 014°51'0 0.4
2017-Sep-17 19:55N 35°60' E 014°51'1 3.3
2017-Sep-17 19:30N 36°01' E 014°51'4 5.1
2017-Sep-17 18:42N 36°05' E 014°49'1 5.1
2017-Sep-17 18:28N 36°06' E 014°49'2 5.2
2017-Sep-17 18:00N 36°08' E 014°48'3 5.2
2017-Sep-17 17:30N 36°11' E 014°46'2 4.9
2017-Sep-17 17:00N 36°13' E 014°45'2 3.6
2017-Sep-17 16:30N 36°13' E 014°43'2 4.9
2017-Sep-17 16:00N 36°11' E 014°44'3 5.1
2017-Sep-17 15:30N 36°08' E 014°45'3 5.4
2017-Sep-17 14:57N 36°06' E 014°47'2 5.6
2017-Sep-17 14:30N 36°04' E 014°48'3 5.8
2017-Sep-17 14:00N 36°01' E 014°50'1 1.5
2017-Sep-17 13:30N 36°01' E 014°50'2 4.2
2017-Sep-17 13:00N 36°02' E 014°48'4 7.3
2017-Sep-17 12:30N 36°04' E 014°44'3 5.6
2017-Sep-17 11:59N 36°04' E 014°41'510.9
2017-Sep-17 11:30N 36°07' E 014°35'612.0
2017-Sep-17 11:00N 36°11' E 014°29'612.5
2017-Sep-17 10:30N 36°13' E 014°22'612.1
2017-Sep-17 10:00N 36°15' E 014°15'612.0
2017-Sep-17 09:30N 36°17' E 014°08'611.8
2017-Sep-17 09:00N 36°20' E 014°01'611.8
2017-Sep-17 08:30N 36°22' E 013°55'611.8
2017-Sep-17 08:00N 36°24' E 013°48'611.7
2017-Sep-17 07:30N 36°26' E 013°41'611.5
2017-Sep-17 07:00N 36°29' E 013°34'611.5
2017-Sep-17 06:30N 36°31' E 013°28'611.3
2017-Sep-17 06:00N 36°33' E 013°22'611.1
2017-Sep-17 05:30N 36°35' E 013°15'611.3
2017-Sep-17 05:00N 36°37' E 013°09'611.6
2017-Sep-17 04:30N 36°39' E 013°02'611.9
2017-Sep-17 04:00N 36°41' E 012°55'612.4
2017-Sep-17 03:30N 36°43' E 012°47'1112.5
2017-Sep-17 02:38N 36°48' E 012°35'212.7
2017-Sep-17 02:28N 36°48' E 012°33'612.9
2017-Sep-17 02:00N 36°51' E 012°26'612.8
2017-Sep-17 01:30N 36°53' E 012°18'713.1
2017-Sep-17 01:00N 36°56' E 012°11'713.1
2017-Sep-17 00:30N 36°59' E 012°04'612.8
2017-Sep-17 00:00N 37°02' E 011°56'612.5
2017-Sep-16 23:30N 37°04' E 011°49'612.5
2017-Sep-16 23:00N 37°07' E 011°42'612.6
2017-Sep-16 22:30N 37°10' E 011°35'612.8
2017-Sep-16 22:00N 37°13' E 011°28'713.0
2017-Sep-16 21:30N 37°17' E 011°21'612.9
2017-Sep-16 21:00N 37°20' E 011°14'712.8
2017-Sep-16 20:29N 37°23' E 011°07'612.9
2017-Sep-16 20:00N 37°27' E 011°01'613.1
2017-Sep-16 19:30N 37°31' E 010°54'713.0
2017-Sep-16 19:00N 37°34' E 010°47'613.1
2017-Sep-16 18:30N 37°37' E 010°40'713.0
2017-Sep-16 18:00N 37°41' E 010°34'712.9
2017-Sep-16 17:26N 37°45' E 010°26'612.7
2017-Sep-16 17:00N 37°48' E 010°20'612.8
2017-Sep-16 16:30N 37°52' E 010°13'612.6
2017-Sep-16 16:00N 37°55' E 010°06'612.5
2017-Sep-16 15:30N 37°59' E 009°60'712.5
2017-Sep-16 14:54N 38°03' E 009°52'512.8
2017-Sep-16 14:30N 38°06' E 009°46'612.2
2017-Sep-16 14:00N 38°07' E 009°39'5812.6
2017-Sep-16 09:23N 38°04' E 008°26'612.8
2017-Sep-16 08:56N 38°04' E 008°18'34312.5
2017-Sep-15 05:27N 37°24' E 001°08'2912.5
2017-Sep-15 03:10N 37°11' E 000°36'212.3
2017-Sep-15 02:59N 37°10' E 000°33'612.5
2017-Sep-15 02:29N 37°07' E 000°26'612.8
2017-Sep-15 02:00N 37°04' E 000°19'812.8
2017-Sep-15 01:22N 37°01' E 000°10'512.9
2017-Sep-15 01:00N 36°59' E 000°05'712.9
2017-Sep-15 00:29N 36°56' W 000°03'2312.7
2017-Sep-14 22:43N 36°46' W 000°28'312.8
2017-Sep-14 22:30N 36°45' W 000°31'812.7
2017-Sep-14 21:53N 36°41' W 000°40'512.7
2017-Sep-14 21:30N 36°39' W 000°45'712.9
2017-Sep-14 21:00N 36°36' W 000°53'613.0
2017-Sep-14 20:30N 36°33' W 000°59'613.0
2017-Sep-14 20:00N 36°30' W 001°06'713.3
2017-Sep-14 19:30N 36°27' W 001°14'713.6
2017-Sep-14 18:59N 36°24' W 001°22'713.6
2017-Sep-14 18:30N 36°21' W 001°29'713.5
2017-Sep-14 18:00N 36°18' W 001°37'2413.2
2017-Sep-14 16:11N 36°13' W 002°06'513.2
2017-Sep-14 15:50N 36°13' W 002°12'14813.4
2017-Sep-14 04:46N 36°00' W 005°14'313.4
2017-Sep-14 04:30N 35°60' W 005°18'713.3
2017-Sep-14 04:00N 35°58' W 005°26'713.3
2017-Sep-14 03:30N 35°56' W 005°34'712.7
2017-Sep-14 02:59N 35°55' W 005°42'612.3
2017-Sep-14 02:30N 35°55' W 005°49'6712.3
2017-Sep-13 21:04N 36°03' W 007°12'1512.2
2017-Sep-13 19:51N 36°06' W 007°29'412.1
2017-Sep-13 19:30N 36°07' W 007°35'712.4
2017-Sep-13 18:58N 36°09' W 007°43'612.2
2017-Sep-13 18:30N 36°10' W 007°49'712.1
2017-Sep-13 17:55N 36°12' W 007°58'512.3
2017-Sep-13 17:30N 36°13' W 008°04'712.7
2017-Sep-13 16:59N 36°15' W 008°12'812.4
2017-Sep-13 16:20N 36°17' W 008°22'612.4
2017-Sep-13 15:49N 36°19' W 008°29'412.6
2017-Sep-13 15:28N 36°20' W 008°35'612.5
2017-Sep-13 14:58N 36°21' W 008°42'612.6
2017-Sep-13 14:30N 36°23' W 008°49'712.8
2017-Sep-13 13:59N 36°25' W 008°57'613.0
2017-Sep-13 13:30N 36°26' W 009°05'713.0
2017-Sep-13 12:56N 36°28' W 009°14'512.9
2017-Sep-13 12:30N 36°30' W 009°20'612.6
2017-Sep-13 12:00N 36°34' W 009°26'612.8
2017-Sep-13 11:30N 36°39' W 009°31'612.6
2017-Sep-13 11:00N 36°44' W 009°36'612.3
2017-Sep-13 10:31N 36°49' W 009°39'1013.0
2017-Sep-13 09:46N 36°59' W 009°42'313.0
2017-Sep-13 09:30N 37°02' W 009°43'612.8
2017-Sep-13 09:00N 37°08' W 009°45'613.0
2017-Sep-13 08:30N 37°14' W 009°47'713.1
2017-Sep-13 08:00N 37°21' W 009°49'612.8
2017-Sep-13 07:30N 37°27' W 009°51'712.7
2017-Sep-13 07:00N 37°33' W 009°52'612.5
2017-Sep-13 06:30N 37°39' W 009°54'912.4
2017-Sep-13 05:45N 37°48' W 009°56'512.5
2017-Sep-13 05:22N 37°53' W 009°58'512.5
2017-Sep-13 05:00N 37°58' W 009°59'612.6
2017-Sep-13 04:30N 38°04' W 010°01'612.7
2017-Sep-13 04:00N 38°10' W 010°03'612.4
2017-Sep-13 03:30N 38°16' W 010°05'612.4
2017-Sep-13 03:00N 38°22' W 010°07'612.9
2017-Sep-13 02:30N 38°28' W 010°09'713.1
2017-Sep-13 02:00N 38°35' W 010°10'713.3
2017-Sep-13 01:30N 38°41' W 010°12'713.2
2017-Sep-13 01:00N 38°48' W 010°12'613.0
2017-Sep-13 00:30N 38°54' W 010°12'713.3
2017-Sep-13 00:00N 39°01' W 010°12'613.1
2017-Sep-12 23:30N 39°07' W 010°12'713.1
2017-Sep-12 23:00N 39°14' W 010°12'612.9
2017-Sep-12 22:30N 39°20' W 010°12'712.9
2017-Sep-12 22:00N 39°27' W 010°12'612.8
2017-Sep-12 21:30N 39°33' W 010°12'1413.1
2017-Sep-12 20:28N 39°47' W 010°12'613.1
2017-Sep-12 19:59N 39°53' W 010°12'2612.8
2017-Sep-12 17:56N 40°19' W 010°12'  

Dump ship's entire track history